createdAt,value
2023-04-17T00:00:04.580Z,98.10
2023-04-17T00:01:04.595Z,98.58
2023-04-17T00:02:04.623Z,98.20
2023-04-17T00:03:04.883Z,99.05
2023-04-17T00:04:04.739Z,99.05
2023-04-17T00:05:04.720Z,98.77
2023-04-17T00:06:04.621Z,98.29
2023-04-17T00:07:04.625Z,98.67
2023-04-17T00:08:04.640Z,99.05
2023-04-17T00:09:04.636Z,98.58
2023-04-17T00:10:04.655Z,99.15
2023-04-17T00:11:08.643Z,98.86
2023-04-17T00:12:04.649Z,98.96
2023-04-17T00:13:04.650Z,98.86
2023-04-17T00:14:04.660Z,98.77
2023-04-17T00:15:04.663Z,98.39
2023-04-17T00:16:04.726Z,98.96
2023-04-17T00:17:04.675Z,99.99
2023-04-17T00:18:04.678Z,99.99
2023-04-17T00:19:04.688Z,99.99
2023-04-17T00:20:04.685Z,99.99
2023-04-17T00:21:04.694Z,99.99
2023-04-17T00:22:04.699Z,99.99
2023-04-17T00:23:04.707Z,99.99
2023-04-17T00:24:04.708Z,99.99
2023-04-17T00:25:04.736Z,99.99
2023-04-17T00:26:04.734Z,99.99
2023-04-17T00:27:04.734Z,99.99
2023-04-17T00:28:04.735Z,99.99
2023-04-17T00:29:04.741Z,99.99
2023-04-17T00:30:04.746Z,99.99
2023-04-17T00:31:04.747Z,99.99
2023-04-17T00:32:04.801Z,99.99
2023-04-17T00:33:04.816Z,99.99
2023-04-17T00:34:04.761Z,99.99
2023-04-17T00:35:04.816Z,99.99
2023-04-17T00:36:04.774Z,99.99
2023-04-17T00:37:04.784Z,99.99
2023-04-17T00:38:04.783Z,99.99
2023-04-17T00:39:04.791Z,99.99
2023-04-17T00:40:04.797Z,99.99
2023-04-17T00:41:04.803Z,99.99
2023-04-17T00:42:04.934Z,99.99
2023-04-17T00:43:04.834Z,99.99
2023-04-17T00:44:04.813Z,99.99
2023-04-17T00:45:04.827Z,99.99
2023-04-17T00:46:04.844Z,99.99
2023-04-17T00:47:04.833Z,99.99
2023-04-17T00:48:04.978Z,99.99
2023-04-17T00:49:04.844Z,99.99
2023-04-17T00:50:04.845Z,99.99
2023-04-17T00:51:04.851Z,99.99
2023-04-17T00:52:04.857Z,99.99
2023-04-17T00:53:04.870Z,99.99
2023-04-17T00:54:04.863Z,99.99
2023-04-17T00:55:04.873Z,99.99
2023-04-17T00:56:04.882Z,99.99
2023-04-17T00:57:04.887Z,99.99
2023-04-17T00:58:04.904Z,99.99
2023-04-17T00:59:04.896Z,99.99
2023-04-17T01:00:04.897Z,99.99
2023-04-17T01:01:04.943Z,99.99
2023-04-17T01:02:04.965Z,99.99
2023-04-17T01:03:05.118Z,99.99
2023-04-17T01:04:05.057Z,99.99
2023-04-17T01:05:04.938Z,99.99
2023-04-17T01:06:04.921Z,99.99
2023-04-17T01:07:04.941Z,99.99
2023-04-17T01:08:04.939Z,99.99
2023-04-17T01:09:04.942Z,99.99
2023-04-17T01:10:04.939Z,99.99
2023-04-17T01:11:04.950Z,99.99
2023-04-17T01:12:04.953Z,99.99
2023-04-17T01:13:04.961Z,99.99
2023-04-17T01:14:04.989Z,99.99
2023-04-17T01:15:04.997Z,99.99
2023-04-17T01:16:04.988Z,99.99
2023-04-17T01:17:05.048Z,99.99
2023-04-17T01:18:05.036Z,99.99
2023-04-17T01:19:04.989Z,99.99
2023-04-17T01:20:04.987Z,99.99
2023-04-17T01:21:04.996Z,99.99
2023-04-17T01:22:05.016Z,99.99
2023-04-17T01:23:05.001Z,99.99
2023-04-17T01:24:05.014Z,99.99
2023-04-17T01:25:05.021Z,99.99
2023-04-17T01:26:05.015Z,99.99
2023-04-17T01:27:05.056Z,99.99
2023-04-17T01:28:05.028Z,99.99
2023-04-17T01:29:05.033Z,99.99
2023-04-17T01:30:05.048Z,99.99
2023-04-17T01:31:05.120Z,99.99
2023-04-17T01:32:05.043Z,99.99
2023-04-17T01:33:05.072Z,99.99
2023-04-17T01:34:05.063Z,99.99
2023-04-17T01:35:05.066Z,99.99
2023-04-17T01:36:05.076Z,99.99
2023-04-17T01:37:05.082Z,99.99
2023-04-17T01:38:05.073Z,99.99
2023-04-17T01:39:05.077Z,99.99
2023-04-17T01:40:05.078Z,99.99
2023-04-17T01:41:05.087Z,99.99
2023-04-17T01:42:05.084Z,99.99
2023-04-17T01:43:05.110Z,99.99
2023-04-17T01:44:05.103Z,99.99
2023-04-17T01:45:05.112Z,99.99
2023-04-17T01:46:05.158Z,99.99
2023-04-17T01:47:05.119Z,99.99
2023-04-17T01:48:05.183Z,99.99
2023-04-17T01:49:05.125Z,99.99
2023-04-17T01:50:05.129Z,99.99
2023-04-17T01:51:05.130Z,99.99
2023-04-17T01:52:05.159Z,99.99
2023-04-17T01:53:05.150Z,99.99
2023-04-17T01:54:05.142Z,99.99
2023-04-17T01:55:05.161Z,99.99
2023-04-17T01:56:05.157Z,99.99
2023-04-17T01:57:05.183Z,99.99
2023-04-17T01:58:05.173Z,99.99
2023-04-17T01:59:05.173Z,99.99
2023-04-17T02:00:05.249Z,99.99
2023-04-17T02:01:05.178Z,99.99
2023-04-17T02:02:05.282Z,99.99
2023-04-17T02:03:05.429Z,99.99
2023-04-17T02:04:05.338Z,99.99
2023-04-17T02:05:05.196Z,99.99
2023-04-17T02:06:05.194Z,99.99
2023-04-17T02:07:05.228Z,99.99
2023-04-17T02:08:05.212Z,99.99
2023-04-17T02:09:05.222Z,99.99
2023-04-17T02:10:05.253Z,99.99
2023-04-17T02:11:05.222Z,99.99
2023-04-17T02:12:05.231Z,99.99
2023-04-17T02:13:05.230Z,99.99
2023-04-17T02:14:05.245Z,99.99
2023-04-17T02:15:05.237Z,99.99
2023-04-17T02:16:05.342Z,99.99
2023-04-17T02:17:05.245Z,99.99
2023-04-17T02:18:05.304Z,99.99
2023-04-17T02:19:05.259Z,99.99
2023-04-17T02:20:05.305Z,99.99
2023-04-17T02:21:05.268Z,99.99
2023-04-17T02:22:05.272Z,99.99
2023-04-17T02:23:05.277Z,99.99
2023-04-17T02:24:05.285Z,99.99
2023-04-17T02:25:05.289Z,99.99
2023-04-17T02:26:05.289Z,99.99
2023-04-17T02:27:05.304Z,99.99
2023-04-17T02:28:05.306Z,99.99
2023-04-17T02:29:05.302Z,99.99
2023-04-17T02:30:05.304Z,99.99
2023-04-17T02:31:05.333Z,99.99
2023-04-17T02:32:05.316Z,99.99
2023-04-17T02:33:05.435Z,99.99
2023-04-17T02:34:05.338Z,99.99
2023-04-17T02:35:05.326Z,99.99
2023-04-17T02:36:05.337Z,99.99
2023-04-17T02:37:05.338Z,99.99
2023-04-17T02:38:05.341Z,99.99
2023-04-17T02:39:05.352Z,99.99
2023-04-17T02:40:05.347Z,99.99
2023-04-17T02:41:05.376Z,99.99
2023-04-17T02:42:05.363Z,99.99
2023-04-17T02:43:05.365Z,99.99
2023-04-17T02:44:05.366Z,99.99
2023-04-17T02:45:05.373Z,99.99
2023-04-17T02:46:05.378Z,99.99
2023-04-17T02:47:05.399Z,99.99
2023-04-17T02:48:05.441Z,99.99
2023-04-17T02:49:05.409Z,99.99
2023-04-17T02:50:05.422Z,99.99
2023-04-17T02:51:05.402Z,99.99
2023-04-17T02:52:05.435Z,99.99
2023-04-17T02:53:05.409Z,99.99
2023-04-17T02:54:05.417Z,99.99
2023-04-17T02:55:05.417Z,99.99
2023-04-17T02:56:05.427Z,99.99
2023-04-17T02:57:05.433Z,99.99
2023-04-17T02:58:05.445Z,99.99
2023-04-17T02:59:05.435Z,99.99
2023-04-17T03:00:05.458Z,99.99
2023-04-17T03:01:05.462Z,99.99
2023-04-17T03:02:05.560Z,99.99
2023-04-17T03:03:05.536Z,99.99
2023-04-17T03:04:05.645Z,99.99
2023-04-17T03:05:05.483Z,99.99
2023-04-17T03:06:05.502Z,99.99
2023-04-17T03:07:05.474Z,99.99
2023-04-17T03:08:05.490Z,99.99
2023-04-17T03:09:05.490Z,99.99
2023-04-17T03:10:05.497Z,99.99
2023-04-17T03:11:05.487Z,99.99
2023-04-17T03:12:05.494Z,99.99
2023-04-17T03:13:05.497Z,99.99
2023-04-17T03:14:05.506Z,99.99
2023-04-17T03:15:07.697Z,99.99
2023-04-17T03:16:05.557Z,99.99
2023-04-17T03:17:05.512Z,99.99
2023-04-17T03:18:05.601Z,99.99
2023-04-17T03:19:05.520Z,99.99
2023-04-17T03:20:05.547Z,99.99
2023-04-17T03:21:05.538Z,99.99
2023-04-17T03:22:05.565Z,99.99
2023-04-17T03:23:05.535Z,99.99
2023-04-17T03:24:05.545Z,99.99
2023-04-17T03:25:05.551Z,99.99
2023-04-17T03:26:05.554Z,99.99
2023-04-17T03:27:05.557Z,99.99
2023-04-17T03:28:05.561Z,99.99
2023-04-17T03:29:05.565Z,99.99
2023-04-17T03:30:05.576Z,99.99
2023-04-17T03:31:05.587Z,99.99
2023-04-17T03:32:05.650Z,99.99
2023-04-17T03:33:05.694Z,99.99
2023-04-17T03:34:05.587Z,99.99
2023-04-17T03:35:05.592Z,99.99
2023-04-17T03:36:05.608Z,99.99
2023-04-17T03:37:05.603Z,99.99
2023-04-17T03:38:05.629Z,99.99
2023-04-17T03:39:05.602Z,99.99
2023-04-17T03:40:05.610Z,99.99
2023-04-17T03:41:05.612Z,99.99
2023-04-17T03:42:05.624Z,99.99
2023-04-17T03:43:05.626Z,99.99
2023-04-17T03:44:05.632Z,99.99
2023-04-17T03:45:05.648Z,99.99
2023-04-17T03:46:05.679Z,99.99
2023-04-17T03:47:05.709Z,99.99
2023-04-17T03:48:05.701Z,99.99
2023-04-17T03:49:05.667Z,99.99
2023-04-17T03:50:05.659Z,99.99
2023-04-17T03:51:05.652Z,99.99
2023-04-17T03:52:05.665Z,99.99
2023-04-17T03:53:05.666Z,99.99
2023-04-17T03:54:05.688Z,99.99
2023-04-17T03:55:05.669Z,99.99
2023-04-17T03:56:05.673Z,99.99
2023-04-17T03:57:05.673Z,99.99
2023-04-17T03:58:05.685Z,99.99
2023-04-17T03:59:05.678Z,99.99
2023-04-17T04:00:05.704Z,99.99
2023-04-17T04:01:05.697Z,99.99
2023-04-17T04:02:05.767Z,99.99
2023-04-17T04:03:05.934Z,99.99
2023-04-17T04:04:05.869Z,99.99
2023-04-17T04:05:05.749Z,99.99
2023-04-17T04:06:05.708Z,99.99
2023-04-17T04:07:05.709Z,99.99
2023-04-17T04:08:05.717Z,99.99
2023-04-17T04:09:05.717Z,99.99
2023-04-17T04:10:05.750Z,99.99
2023-04-17T04:11:05.723Z,99.99
2023-04-17T04:12:05.735Z,99.99
2023-04-17T04:13:05.733Z,99.99
2023-04-17T04:14:05.742Z,99.99
2023-04-17T04:15:05.745Z,99.99
2023-04-17T04:16:05.800Z,99.99
2023-04-17T04:17:05.748Z,99.99
2023-04-17T04:18:05.813Z,99.99
2023-04-17T04:19:05.761Z,99.99
2023-04-17T04:20:05.766Z,99.99
2023-04-17T04:21:05.765Z,99.99
2023-04-17T04:22:06.850Z,99.99
2023-04-17T04:23:05.778Z,99.99
2023-04-17T04:24:05.780Z,99.99
2023-04-17T04:25:05.781Z,99.99
2023-04-17T04:26:05.816Z,99.99
2023-04-17T04:27:05.789Z,99.99
2023-04-17T04:28:05.799Z,99.99
2023-04-17T04:29:05.814Z,99.99
2023-04-17T04:30:05.817Z,99.99
2023-04-17T04:31:05.849Z,99.99
2023-04-17T04:32:05.813Z,99.99
2023-04-17T04:33:06.073Z,99.99
2023-04-17T04:34:05.825Z,99.99
2023-04-17T04:35:05.825Z,99.99
2023-04-17T04:36:05.834Z,99.99
2023-04-17T04:37:05.834Z,99.99
2023-04-17T04:38:05.843Z,99.99
2023-04-17T04:39:05.857Z,99.99
2023-04-17T04:40:05.861Z,99.99
2023-04-17T04:41:06.134Z,99.99
2023-04-17T04:42:05.936Z,99.99
2023-04-17T04:43:05.858Z,99.99
2023-04-17T04:44:05.862Z,99.99
2023-04-17T04:45:05.899Z,99.99
2023-04-17T04:46:05.875Z,99.99
2023-04-17T04:47:05.936Z,99.99
2023-04-17T04:48:05.957Z,99.99
2023-04-17T04:49:05.884Z,99.99
2023-04-17T04:50:05.893Z,99.99
2023-04-17T04:51:05.897Z,99.99
2023-04-17T04:52:05.899Z,99.99
2023-04-17T04:53:05.899Z,99.99
2023-04-17T04:54:05.905Z,99.99
2023-04-17T04:55:05.915Z,99.99
2023-04-17T04:56:05.942Z,99.99
2023-04-17T04:57:05.917Z,99.99
2023-04-17T04:58:05.944Z,99.99
2023-04-17T04:59:05.924Z,99.99
2023-04-17T05:00:05.940Z,99.99
2023-04-17T05:01:05.956Z,99.99
2023-04-17T05:02:06.023Z,99.99
2023-04-17T05:03:06.059Z,99.99
2023-04-17T05:04:06.063Z,99.99
2023-04-17T05:05:05.993Z,99.99
2023-04-17T05:06:05.957Z,99.99
2023-04-17T05:07:05.959Z,99.99
2023-04-17T05:08:05.965Z,99.99
2023-04-17T05:09:05.965Z,99.99
2023-04-17T05:10:05.971Z,99.99
2023-04-17T05:11:05.977Z,99.99
2023-04-17T05:12:05.985Z,99.99
2023-04-17T05:13:05.985Z,99.99
2023-04-17T05:14:06.021Z,99.99
2023-04-17T05:15:06.000Z,99.99
2023-04-17T05:16:06.013Z,99.99
2023-04-17T05:17:05.997Z,99.99
2023-04-17T05:18:06.067Z,99.99
2023-04-17T05:19:06.011Z,99.99
2023-04-17T05:20:06.014Z,99.99
2023-04-17T05:21:06.018Z,99.99
2023-04-17T05:22:06.021Z,99.99
2023-04-17T05:23:06.020Z,99.99
2023-04-17T05:24:06.033Z,99.99
2023-04-17T05:25:06.029Z,99.99
2023-04-17T05:26:06.055Z,99.99
2023-04-17T05:27:06.055Z,99.99
2023-04-17T05:28:06.048Z,99.99
2023-04-17T05:29:06.046Z,99.99
2023-04-17T05:30:06.091Z,99.99
2023-04-17T05:31:06.137Z,99.99
2023-04-17T05:32:06.119Z,99.99
2023-04-17T05:33:06.128Z,99.99
2023-04-17T05:34:06.075Z,99.99
2023-04-17T05:35:06.070Z,99.99
2023-04-17T05:36:06.086Z,99.99
2023-04-17T05:37:06.087Z,99.99
2023-04-17T05:38:06.097Z,99.99
2023-04-17T05:39:06.083Z,99.99
2023-04-17T05:40:06.090Z,99.99
2023-04-17T05:41:06.090Z,99.99
2023-04-17T05:42:06.101Z,99.99
2023-04-17T05:43:06.114Z,99.99
2023-04-17T05:44:06.104Z,99.99
2023-04-17T05:45:06.110Z,99.99
2023-04-17T05:46:06.209Z,99.99
2023-04-17T05:47:06.117Z,99.99
2023-04-17T05:48:06.189Z,99.99
2023-04-17T05:49:06.122Z,99.99
2023-04-17T05:50:06.130Z,99.99
2023-04-17T05:51:06.131Z,99.99
2023-04-17T05:52:06.139Z,99.99
2023-04-17T05:53:06.137Z,99.99
2023-04-17T05:54:06.145Z,99.99
2023-04-17T05:55:06.146Z,99.99
2023-04-17T05:56:06.154Z,99.99
2023-04-17T05:57:06.164Z,99.99
2023-04-17T05:58:20.505Z,99.99
2023-04-17T05:59:06.162Z,99.99
2023-04-17T06:00:06.175Z,99.99
2023-04-17T06:01:06.185Z,99.99
2023-04-17T06:02:06.301Z,99.99
2023-04-17T06:03:06.390Z,99.99
2023-04-17T06:04:06.514Z,99.99
2023-04-17T06:05:06.335Z,99.99
2023-04-17T06:06:06.202Z,99.99
2023-04-17T06:07:06.270Z,99.99
2023-04-17T06:08:06.203Z,99.99
2023-04-17T06:09:06.204Z,99.99
2023-04-17T06:10:06.212Z,99.99
2023-04-17T06:11:06.220Z,99.99
2023-04-17T06:12:06.220Z,99.99
2023-04-17T06:13:06.221Z,99.99
2023-04-17T06:14:06.235Z,99.99
2023-04-17T06:15:07.414Z,99.99
2023-04-17T06:16:06.236Z,99.99
2023-04-17T06:17:06.315Z,99.99
2023-04-17T06:18:06.400Z,99.99
2023-04-17T06:19:06.244Z,99.99
2023-04-17T06:20:06.258Z,99.99
2023-04-17T06:21:06.260Z,99.99
2023-04-17T06:22:06.270Z,99.99
2023-04-17T06:23:06.259Z,99.99
2023-04-17T06:24:06.281Z,99.99
2023-04-17T06:25:06.303Z,99.99
2023-04-17T06:26:06.279Z,99.99
2023-04-17T06:27:06.277Z,99.99
2023-04-17T06:28:06.285Z,99.99
2023-04-17T06:29:06.285Z,99.99
2023-04-17T06:30:06.298Z,99.99
2023-04-17T06:31:06.353Z,99.99
2023-04-17T06:32:06.305Z,99.99
2023-04-17T06:33:06.341Z,99.99
2023-04-17T06:34:06.439Z,99.99
2023-04-17T06:35:06.312Z,99.99
2023-04-17T06:36:06.328Z,99.99
2023-04-17T06:37:06.344Z,99.99
2023-04-17T06:38:06.324Z,99.99
2023-04-17T06:39:06.325Z,99.99
2023-04-17T06:40:06.337Z,99.99
2023-04-17T06:41:06.334Z,99.99
2023-04-17T06:42:06.354Z,99.99
2023-04-17T06:43:06.353Z,99.99
2023-04-17T06:44:06.354Z,99.99
2023-04-17T06:45:06.356Z,99.99
2023-04-17T06:46:06.407Z,99.99
2023-04-17T06:47:06.360Z,99.99
2023-04-17T06:48:06.444Z,99.99
2023-04-17T06:49:06.385Z,99.99
2023-04-17T06:50:06.513Z,99.99
2023-04-17T06:51:06.386Z,99.99
2023-04-17T06:52:06.390Z,99.99
2023-04-17T06:53:06.380Z,99.99
2023-04-17T06:54:06.394Z,99.99
2023-04-17T06:55:06.397Z,99.99
2023-04-17T06:56:06.422Z,99.99
2023-04-17T06:57:06.403Z,99.99
2023-04-17T06:58:06.408Z,99.99
2023-04-17T06:59:06.410Z,99.99
2023-04-17T07:00:06.422Z,99.99
2023-04-17T07:01:06.419Z,99.99
2023-04-17T07:02:06.482Z,99.99
2023-04-17T07:03:06.529Z,99.99
2023-04-17T07:04:06.552Z,99.99
2023-04-17T07:05:06.441Z,99.99
2023-04-17T07:06:06.519Z,99.99
2023-04-17T07:07:06.436Z,99.99
2023-04-17T07:08:06.440Z,99.99
2023-04-17T07:09:06.446Z,99.99
2023-04-17T07:10:06.474Z,99.99
2023-04-17T07:11:06.454Z,99.99
2023-04-17T07:12:06.458Z,99.99
2023-04-17T07:13:06.463Z,99.99
2023-04-17T07:14:06.462Z,99.99
2023-04-17T07:15:06.522Z,99.99
2023-04-17T07:16:06.691Z,99.99
2023-04-17T07:17:06.472Z,99.99
2023-04-17T07:18:06.550Z,99.99
2023-04-17T07:19:06.487Z,99.99
2023-04-17T07:20:06.494Z,99.99
2023-04-17T07:21:06.491Z,99.99
2023-04-17T07:22:06.519Z,99.99
2023-04-17T07:23:06.500Z,99.99
2023-04-17T07:24:06.511Z,99.99
2023-04-17T07:25:06.511Z,99.99
2023-04-17T07:26:06.517Z,99.99
2023-04-17T07:27:06.511Z,99.99
2023-04-17T07:28:06.517Z,99.99
2023-04-17T07:29:06.528Z,99.99
2023-04-17T07:30:06.521Z,99.99
2023-04-17T07:31:06.552Z,99.99
2023-04-17T07:32:06.526Z,99.99
2023-04-17T07:33:06.614Z,99.99
2023-04-17T07:34:06.541Z,99.99
2023-04-17T07:35:06.551Z,99.99
2023-04-17T07:36:06.546Z,99.99
2023-04-17T07:37:06.566Z,99.99
2023-04-17T07:38:06.577Z,99.99
2023-04-17T07:39:06.567Z,99.99
2023-04-17T07:40:06.564Z,99.99
2023-04-17T07:41:06.587Z,99.01
2023-04-17T07:42:06.578Z,99.99
2023-04-17T07:43:06.588Z,99.99
2023-04-17T07:44:06.584Z,99.99
2023-04-17T07:45:06.595Z,99.99
2023-04-17T07:46:06.597Z,99.99
2023-04-17T07:47:06.633Z,99.99
2023-04-17T07:48:06.614Z,97.49
2023-04-17T07:49:06.615Z,98.91
2023-04-17T07:50:06.608Z,97.68
2023-04-17T07:51:06.613Z,99.99
2023-04-17T07:52:06.609Z,99.95
2023-04-17T07:53:06.621Z,99.99
2023-04-17T07:54:06.639Z,99.99
2023-04-17T07:55:06.626Z,99.99
2023-04-17T07:56:06.653Z,99.99
2023-04-17T07:57:06.636Z,99.95
2023-04-17T07:58:06.644Z,99.95
2023-04-17T07:59:06.646Z,99.95
2023-04-17T08:00:06.647Z,99.99
2023-04-17T08:01:06.652Z,98.91
2023-04-17T08:02:06.771Z,99.99
2023-04-17T08:03:06.819Z,99.48
2023-04-17T08:04:06.839Z,97.30
2023-04-17T08:05:06.749Z,99.05
2023-04-17T08:06:06.678Z,95.26
2023-04-17T08:07:06.681Z,95.12
2023-04-17T08:08:06.681Z,96.54
2023-04-17T08:09:06.690Z,96.92
2023-04-17T08:10:06.728Z,95.03
2023-04-17T08:11:06.698Z,97.39
2023-04-17T08:12:06.702Z,99.99
2023-04-17T08:13:06.715Z,99.99
2023-04-17T08:14:06.712Z,98.77
2023-04-17T08:15:06.719Z,97.25
2023-04-17T08:16:06.718Z,98.20
2023-04-17T08:17:06.814Z,96.21
2023-04-17T08:18:06.804Z,96.02
2023-04-17T08:19:06.743Z,97.06
2023-04-17T08:20:06.746Z,98.96
2023-04-17T08:21:06.747Z,99.99
2023-04-17T08:22:06.752Z,99.99
2023-04-17T08:23:06.755Z,98.49
2023-04-17T08:24:06.755Z,99.81
2023-04-17T08:25:06.766Z,98.58
2023-04-17T08:26:06.791Z,99.99
2023-04-17T08:27:06.779Z,99.99
2023-04-17T08:28:06.777Z,99.99
2023-04-17T08:29:06.784Z,97.25
2023-04-17T08:30:06.801Z,99.99
2023-04-17T08:31:06.832Z,97.68
2023-04-17T08:32:13.847Z,97.02
2023-04-17T08:33:06.805Z,96.50
2023-04-17T08:34:14.378Z,96.45
2023-04-17T08:35:06.816Z,97.16
2023-04-17T08:36:08.594Z,99.99
2023-04-17T08:37:06.833Z,98.54
2023-04-17T08:38:06.828Z,99.15
2023-04-17T08:39:06.836Z,95.22
2023-04-17T08:40:06.846Z,95.84
2023-04-17T08:41:06.856Z,99.99
2023-04-17T08:42:06.877Z,97.64
2023-04-17T08:43:06.878Z,99.99
2023-04-17T08:44:06.877Z,94.79
2023-04-17T08:45:06.867Z,99.72
2023-04-17T08:46:06.913Z,97.07
2023-04-17T08:47:06.889Z,89.48
2023-04-17T08:48:06.914Z,97.26
2023-04-17T08:49:06.913Z,95.45
2023-04-17T08:50:06.902Z,95.36
2023-04-17T08:51:06.911Z,94.89
2023-04-17T08:52:06.897Z,93.46
2023-04-17T08:53:06.909Z,94.04
2023-04-17T08:54:06.909Z,95.26
2023-04-17T08:55:06.920Z,98.35
2023-04-17T08:56:08.866Z,95.98
2023-04-17T08:57:06.936Z,98.44
2023-04-17T08:58:06.954Z,94.84
2023-04-17T08:59:06.944Z,88.77
2023-04-17T09:00:06.949Z,92.28
2023-04-17T09:01:06.971Z,88.73
2023-04-17T09:02:07.185Z,95.50
2023-04-17T09:03:07.108Z,92.38
2023-04-17T09:04:07.185Z,91.05
2023-04-17T09:05:07.100Z,95.65
2023-04-17T09:06:06.978Z,93.56
2023-04-17T09:07:06.986Z,89.15
2023-04-17T09:08:07.027Z,89.43
2023-04-17T09:09:06.997Z,90.19
2023-04-17T09:10:07.002Z,86.26
2023-04-17T09:11:07.015Z,87.59
2023-04-17T09:12:07.014Z,89.58
2023-04-17T09:13:07.026Z,92.33
2023-04-17T09:14:07.047Z,95.31
2023-04-17T09:15:07.032Z,91.80
2023-04-17T09:16:07.093Z,89.81
2023-04-17T09:17:07.051Z,91.94
2023-04-17T09:18:07.088Z,88.81
2023-04-17T09:19:07.087Z,86.16
2023-04-17T09:20:07.082Z,85.97
2023-04-17T09:21:07.088Z,83.40
2023-04-17T09:22:07.073Z,86.82
2023-04-17T09:23:07.096Z,86.54
2023-04-17T09:24:07.094Z,85.06
2023-04-17T09:25:07.115Z,82.88
2023-04-17T09:26:07.101Z,79.80
2023-04-17T09:27:07.112Z,80.18
2023-04-17T09:28:07.110Z,81.79
2023-04-17T09:29:07.120Z,83.88
2023-04-17T09:30:07.144Z,84.36
2023-04-17T09:31:07.192Z,82.17
2023-04-17T09:32:07.166Z,89.29
2023-04-17T09:33:07.148Z,86.82
2023-04-17T09:34:07.163Z,87.01
2023-04-17T09:35:07.181Z,85.11
2023-04-17T09:36:07.164Z,84.59
2023-04-17T09:37:07.170Z,85.83
2023-04-17T09:38:07.223Z,84.12
2023-04-17T09:39:07.187Z,84.92
2023-04-17T09:40:07.190Z,84.55
2023-04-17T09:41:07.201Z,85.44
2023-04-17T09:42:07.239Z,82.59
2023-04-17T09:43:09.392Z,81.79
2023-04-17T09:44:07.216Z,80.75
2023-04-17T09:45:07.227Z,81.60
2023-04-17T09:46:07.318Z,84.01
2023-04-17T09:47:07.319Z,82.78
2023-04-17T09:48:07.328Z,80.13
2023-04-17T09:49:07.258Z,81.13
2023-04-17T09:50:07.272Z,80.94
2023-04-17T09:51:07.272Z,84.97
2023-04-17T09:52:07.274Z,81.17
2023-04-17T09:53:07.293Z,79.27
2023-04-17T09:54:07.288Z,80.51
2023-04-17T09:55:07.307Z,79.84
2023-04-17T09:56:07.326Z,80.88
2023-04-17T09:57:07.307Z,82.27
2023-04-17T09:58:07.565Z,84.17
2023-04-17T09:59:07.330Z,84.87
2023-04-17T10:00:07.324Z,84.68
2023-04-17T10:01:07.359Z,83.97
2023-04-17T10:02:07.559Z,85.97
2023-04-17T10:03:07.575Z,87.91
2023-04-17T10:04:07.602Z,88.39
2023-04-17T10:05:07.367Z,88.01
2023-04-17T10:06:07.369Z,87.15
2023-04-17T10:07:07.375Z,87.82
2023-04-17T10:08:07.379Z,92.18
2023-04-17T10:09:07.394Z,90.61
2023-04-17T10:10:07.393Z,89.33
2023-04-17T10:11:07.412Z,83.82
2023-04-17T10:12:07.409Z,83.91
2023-04-17T10:13:07.425Z,83.19
2023-04-17T10:14:07.424Z,82.53
2023-04-17T10:15:07.432Z,80.68
2023-04-17T10:16:07.447Z,78.50
2023-04-17T10:17:07.459Z,80.21
2023-04-17T10:18:07.556Z,81.25
2023-04-17T10:19:07.462Z,79.79
2023-04-17T10:20:07.470Z,85.24
2023-04-17T10:21:07.480Z,87.24
2023-04-17T10:22:07.484Z,82.29
2023-04-17T10:23:07.494Z,83.62
2023-04-17T10:24:07.500Z,85.28
2023-04-17T10:25:07.512Z,83.48
2023-04-17T10:26:07.519Z,80.77
2023-04-17T10:27:08.290Z,78.06
2023-04-17T10:28:07.528Z,79.20
2023-04-17T10:29:07.548Z,83.10
2023-04-17T10:30:07.550Z,81.52
2023-04-17T10:31:07.563Z,83.52
2023-04-17T10:32:07.608Z,80.91
2023-04-17T10:33:08.485Z,84.95
2023-04-17T10:34:07.613Z,80.86
2023-04-17T10:35:07.592Z,78.48
2023-04-17T10:36:07.601Z,83.28
2023-04-17T10:37:07.611Z,78.57
2023-04-17T10:38:07.628Z,81.24
2023-04-17T10:39:07.625Z,81.85
2023-04-17T10:40:07.629Z,83.09
2023-04-17T10:41:07.646Z,78.04
2023-04-17T10:42:07.661Z,75.19
2023-04-17T10:43:07.663Z,73.66
2023-04-17T10:44:07.675Z,75.57
2023-04-17T10:45:07.778Z,77.47
2023-04-17T10:46:07.719Z,77.19
2023-04-17T10:47:07.701Z,79.75
2023-04-17T10:48:07.829Z,79.28
2023-04-17T10:49:07.715Z,77.11
2023-04-17T10:50:07.755Z,83.52
2023-04-17T10:51:07.741Z,79.24
2023-04-17T10:52:07.739Z,79.43
2023-04-17T10:53:07.752Z,80.04
2023-04-17T10:54:07.761Z,76.23
2023-04-17T10:55:07.853Z,82.46
2023-04-17T10:56:07.773Z,78.46
2023-04-17T10:57:07.790Z,77.00
2023-04-17T10:58:07.795Z,76.61
2023-04-17T10:59:07.807Z,77.19
2023-04-17T11:00:07.813Z,75.15
2023-04-17T11:01:07.835Z,74.87
2023-04-17T11:02:07.985Z,76.82
2023-04-17T11:03:07.971Z,80.63
2023-04-17T11:04:07.901Z,83.23
2023-04-17T11:05:07.894Z,81.18
2023-04-17T11:06:07.899Z,82.80
2023-04-17T11:07:07.886Z,79.80
2023-04-17T11:08:07.893Z,78.56
2023-04-17T11:09:07.903Z,77.89
2023-04-17T11:10:07.916Z,76.56
2023-04-17T11:11:07.924Z,73.89
2023-04-17T11:12:07.932Z,75.79
2023-04-17T11:13:08.050Z,73.99
2023-04-17T11:14:07.955Z,73.47
2023-04-17T11:15:07.964Z,73.66
2023-04-17T11:16:07.970Z,76.52
2023-04-17T11:17:08.023Z,74.71
2023-04-17T11:18:08.057Z,74.10
2023-04-17T11:19:08.000Z,74.14
2023-04-17T11:20:08.015Z,74.29
2023-04-17T11:21:08.020Z,76.33
2023-04-17T11:22:08.055Z,76.46
2023-04-17T11:23:08.085Z,74.62
2023-04-17T11:24:08.061Z,74.46
2023-04-17T11:25:08.062Z,72.42
2023-04-17T11:26:08.082Z,71.76
2023-04-17T11:27:08.081Z,75.09
2023-04-17T11:28:08.102Z,77.37
2023-04-17T11:29:08.120Z,69.85
2023-04-17T11:30:08.118Z,70.05
2023-04-17T11:31:08.148Z,71.82
2023-04-17T11:32:08.137Z,75.19
2023-04-17T11:33:08.231Z,73.47
2023-04-17T11:34:08.206Z,75.51
2023-04-17T11:35:08.170Z,73.22
2023-04-17T11:36:08.191Z,72.94
2023-04-17T11:37:08.183Z,72.88
2023-04-17T11:38:08.218Z,70.90
2023-04-17T11:39:08.262Z,73.95
2023-04-17T11:40:08.221Z,74.62
2023-04-17T11:41:08.230Z,75.28
2023-04-17T11:42:08.237Z,75.23
2023-04-17T11:43:08.241Z,73.19
2023-04-17T11:44:08.261Z,71.22
2023-04-17T11:45:08.264Z,74.56
2023-04-17T11:46:08.286Z,76.31
2023-04-17T11:47:08.285Z,72.94
2023-04-17T11:48:08.303Z,72.42
2023-04-17T11:49:08.305Z,73.72
2023-04-17T11:50:08.326Z,74.73
2023-04-17T11:51:08.327Z,75.34
2023-04-17T11:52:08.354Z,74.58
2023-04-17T11:53:08.348Z,73.72
2023-04-17T11:54:08.395Z,74.58
2023-04-17T11:55:08.399Z,75.57
2023-04-17T11:56:08.383Z,77.47
2023-04-17T11:57:08.399Z,74.62
2023-04-17T11:58:08.403Z,75.60
2023-04-17T11:59:08.409Z,74.62
2023-04-17T12:00:08.426Z,76.04
2023-04-17T12:01:08.431Z,74.37
2023-04-17T12:02:08.493Z,73.28
2023-04-17T12:03:08.640Z,73.03
2023-04-17T12:04:08.650Z,72.62
2023-04-17T12:05:08.797Z,73.22
2023-04-17T12:06:08.491Z,74.08
2023-04-17T12:07:08.500Z,72.75
2023-04-17T12:08:08.517Z,72.37
2023-04-17T12:09:08.514Z,71.72
2023-04-17T12:10:08.555Z,73.25
2023-04-17T12:11:08.535Z,76.08
2023-04-17T12:12:08.549Z,73.66
2023-04-17T12:13:08.565Z,75.04
2023-04-17T12:14:08.571Z,72.08
2023-04-17T12:15:08.592Z,72.97
2023-04-17T12:16:08.643Z,72.60
2023-04-17T12:17:08.600Z,69.64
2023-04-17T12:18:08.767Z,72.37
2023-04-17T12:19:08.626Z,73.13
2023-04-17T12:20:08.666Z,72.94
2023-04-17T12:21:08.642Z,74.12
2023-04-17T12:22:08.663Z,74.25
2023-04-17T12:23:08.671Z,69.42
2023-04-17T12:24:08.690Z,69.89
2023-04-17T12:25:08.695Z,72.56
2023-04-17T12:26:08.736Z,71.83
2023-04-17T12:27:08.742Z,69.29
2023-04-17T12:28:08.721Z,70.65
2023-04-17T12:29:08.730Z,72.56
2023-04-17T12:30:08.811Z,70.65
2023-04-17T12:31:08.754Z,69.76
2023-04-17T12:32:08.894Z,69.85
2023-04-17T12:33:08.771Z,71.70
2023-04-17T12:34:08.787Z,73.26
2023-04-17T12:35:08.791Z,72.02
2023-04-17T12:36:08.985Z,69.23
2023-04-17T12:37:08.817Z,68.81
2023-04-17T12:38:08.853Z,70.47
2023-04-17T12:39:08.837Z,72.60
2023-04-17T12:40:08.975Z,70.02
2023-04-17T12:41:08.857Z,71.39
2023-04-17T12:42:08.895Z,66.97
2023-04-17T12:43:08.883Z,68.27
2023-04-17T12:44:08.899Z,67.89
2023-04-17T12:45:08.907Z,69.89
2023-04-17T12:46:08.964Z,71.26
2023-04-17T12:47:08.939Z,68.24
2023-04-17T12:48:08.940Z,70.09
2023-04-17T12:49:08.980Z,67.71
2023-04-17T12:50:08.986Z,67.52
2023-04-17T12:51:08.965Z,65.99
2023-04-17T12:52:08.989Z,65.96